sensor_id;sensor_type;location;lat;lon;timestamp;P1;durP1;ratioP1;P2;durP2;ratioP2
7571;SDS011;3827;49.928;8.548;2023-04-07T00:00:05;20.23;;;18.52;;
7571;SDS011;3827;49.928;8.548;2023-04-07T00:02:33;21.38;;;19.48;;
7571;SDS011;3827;49.928;8.548;2023-04-07T00:05:00;20.70;;;19.02;;
7571;SDS011;3827;49.928;8.548;2023-04-07T00:07:27;20.85;;;19.15;;
7571;SDS011;3827;49.928;8.548;2023-04-07T00:09:55;19.67;;;18.07;;
7571;SDS011;3827;49.928;8.548;2023-04-07T00:12:22;20.85;;;19.02;;
7571;SDS011;3827;49.928;8.548;2023-04-07T00:14:49;20.10;;;18.40;;
7571;SDS011;3827;49.928;8.548;2023-04-07T00:17:16;19.98;;;18.27;;
7571;SDS011;3827;49.928;8.548;2023-04-07T00:19:43;20.77;;;19.00;;
7571;SDS011;3827;49.928;8.548;2023-04-07T00:22:09;22.07;;;20.07;;
7571;SDS011;3827;49.928;8.548;2023-04-07T00:24:36;20.42;;;18.63;;
7571;SDS011;3827;49.928;8.548;2023-04-07T00:27:04;19.15;;;17.45;;
7571;SDS011;3827;49.928;8.548;2023-04-07T00:29:31;18.90;;;17.35;;
7571;SDS011;3827;49.928;8.548;2023-04-07T00:31:58;18.55;;;17.05;;
7571;SDS011;3827;49.928;8.548;2023-04-07T00:34:25;19.30;;;17.70;;
7571;SDS011;3827;49.928;8.548;2023-04-07T00:36:52;18.60;;;17.00;;
7571;SDS011;3827;49.928;8.548;2023-04-07T00:39:19;18.73;;;17.13;;
7571;SDS011;3827;49.928;8.548;2023-04-07T00:41:46;19.33;;;17.63;;
7571;SDS011;3827;49.928;8.548;2023-04-07T00:44:15;18.73;;;17.13;;
7571;SDS011;3827;49.928;8.548;2023-04-07T00:46:42;18.35;;;16.75;;
7571;SDS011;3827;49.928;8.548;2023-04-07T00:49:09;17.93;;;16.43;;
7571;SDS011;3827;49.928;8.548;2023-04-07T00:51:37;18.17;;;16.67;;
7571;SDS011;3827;49.928;8.548;2023-04-07T00:54:04;19.13;;;17.52;;
7571;SDS011;3827;49.928;8.548;2023-04-07T00:56:31;17.50;;;15.90;;
7571;SDS011;3827;49.928;8.548;2023-04-07T00:58:58;17.67;;;16.27;;
7571;SDS011;3827;49.928;8.548;2023-04-07T01:01:29;17.65;;;16.25;;
7571;SDS011;3827;49.928;8.548;2023-04-07T01:04:01;16.52;;;15.23;;
7571;SDS011;3827;49.928;8.548;2023-04-07T01:06:32;16.90;;;15.50;;
7571;SDS011;3827;49.928;8.548;2023-04-07T01:09:03;17.15;;;15.75;;
7571;SDS011;3827;49.928;8.548;2023-04-07T01:11:34;17.38;;;15.98;;
7571;SDS011;3827;49.928;8.548;2023-04-07T01:14:06;16.42;;;15.13;;
7571;SDS011;3827;49.928;8.548;2023-04-07T01:16:38;16.40;;;15.10;;
7571;SDS011;3827;49.928;8.548;2023-04-07T01:19:13;15.88;;;14.57;;
7571;SDS011;3827;49.928;8.548;2023-04-07T01:21:46;16.92;;;15.45;;
7571;SDS011;3827;49.928;8.548;2023-04-07T01:24:22;17.40;;;15.90;;
7571;SDS011;3827;49.928;8.548;2023-04-07T01:27:04;16.38;;;15.07;;
7571;SDS011;3827;49.928;8.548;2023-04-07T01:29:47;16.58;;;15.27;;
7571;SDS011;3827;49.928;8.548;2023-04-07T01:32:15;16.60;;;15.20;;
7571;SDS011;3827;49.928;8.548;2023-04-07T01:34:44;16.73;;;15.37;;
7571;SDS011;3827;49.928;8.548;2023-04-07T01:37:14;16.00;;;14.73;;
7571;SDS011;3827;49.928;8.548;2023-04-07T01:39:42;16.75;;;15.43;;
7571;SDS011;3827;49.928;8.548;2023-04-07T01:42:09;17.45;;;16.05;;
7571;SDS011;3827;49.928;8.548;2023-04-07T01:44:36;16.50;;;15.10;;
7571;SDS011;3827;49.928;8.548;2023-04-07T01:47:05;16.38;;;15.07;;
7571;SDS011;3827;49.928;8.548;2023-04-07T01:49:32;17.23;;;15.80;;
7571;SDS011;3827;49.928;8.548;2023-04-07T01:52:01;16.70;;;15.40;;
7571;SDS011;3827;49.928;8.548;2023-04-07T01:54:29;17.45;;;15.95;;
7571;SDS011;3827;49.928;8.548;2023-04-07T01:56:56;16.27;;;14.97;;
7571;SDS011;3827;49.928;8.548;2023-04-07T01:59:23;17.02;;;15.70;;
7571;SDS011;3827;49.928;8.548;2023-04-07T02:01:51;16.90;;;15.60;;
7571;SDS011;3827;49.928;8.548;2023-04-07T02:04:20;16.38;;;15.07;;
7571;SDS011;3827;49.928;8.548;2023-04-07T02:06:52;17.65;;;16.17;;
7571;SDS011;3827;49.928;8.548;2023-04-07T02:09:21;17.85;;;16.35;;
7571;SDS011;3827;49.928;8.548;2023-04-07T02:11:51;16.38;;;15.07;;
7571;SDS011;3827;49.928;8.548;2023-04-07T02:14:21;16.45;;;15.15;;
7571;SDS011;3827;49.928;8.548;2023-04-07T02:16:49;17.65;;;16.25;;
7571;SDS011;3827;49.928;8.548;2023-04-07T02:19:16;15.63;;;14.32;;
7571;SDS011;3827;49.928;8.548;2023-04-07T02:21:45;16.67;;;15.27;;
7571;SDS011;3827;49.928;8.548;2023-04-07T02:24:13;16.80;;;15.50;;
7571;SDS011;3827;49.928;8.548;2023-04-07T02:26:44;17.25;;;15.75;;
7571;SDS011;3827;49.928;8.548;2023-04-07T02:29:11;17.08;;;15.68;;
7571;SDS011;3827;49.928;8.548;2023-04-07T02:31:39;14.88;;;13.68;;
7571;SDS011;3827;49.928;8.548;2023-04-07T02:34:05;16.33;;;14.97;;
7571;SDS011;3827;49.928;8.548;2023-04-07T02:36:32;16.63;;;15.32;;
7571;SDS011;3827;49.928;8.548;2023-04-07T02:39:01;16.52;;;15.23;;
7571;SDS011;3827;49.928;8.548;2023-04-07T02:41:27;16.80;;;15.50;;
7571;SDS011;3827;49.928;8.548;2023-04-07T02:43:54;15.85;;;14.55;;
7571;SDS011;3827;49.928;8.548;2023-04-07T02:46:21;16.02;;;14.77;;
7571;SDS011;3827;49.928;8.548;2023-04-07T02:48:48;15.60;;;14.40;;
7571;SDS011;3827;49.928;8.548;2023-04-07T02:51:15;17.02;;;15.63;;
7571;SDS011;3827;49.928;8.548;2023-04-07T02:53:42;16.33;;;15.02;;
7571;SDS011;3827;49.928;8.548;2023-04-07T02:56:10;15.60;;;14.40;;
7571;SDS011;3827;49.928;8.548;2023-04-07T02:58:37;15.98;;;14.68;;
7571;SDS011;3827;49.928;8.548;2023-04-07T03:01:04;16.30;;;15.10;;
7571;SDS011;3827;49.928;8.548;2023-04-07T03:03:31;15.23;;;14.02;;
7571;SDS011;3827;49.928;8.548;2023-04-07T03:05:58;16.27;;;14.82;;
7571;SDS011;3827;49.928;8.548;2023-04-07T03:08:25;15.23;;;14.00;;
7571;SDS011;3827;49.928;8.548;2023-04-07T03:10:52;14.98;;;13.77;;
7571;SDS011;3827;49.928;8.548;2023-04-07T03:13:20;15.32;;;14.13;;
7571;SDS011;3827;49.928;8.548;2023-04-07T03:15:47;16.05;;;14.75;;
7571;SDS011;3827;49.928;8.548;2023-04-07T03:18:14;15.60;;;14.40;;
7571;SDS011;3827;49.928;8.548;2023-04-07T03:20:42;16.40;;;15.13;;
7571;SDS011;3827;49.928;8.548;2023-04-07T03:23:11;19.38;;;17.70;;
7571;SDS011;3827;49.928;8.548;2023-04-07T03:25:38;18.58;;;17.00;;
7571;SDS011;3827;49.928;8.548;2023-04-07T03:28:06;17.70;;;16.25;;
7571;SDS011;3827;49.928;8.548;2023-04-07T03:30:34;19.27;;;17.58;;
7571;SDS011;3827;49.928;8.548;2023-04-07T03:33:02;17.42;;;15.93;;
7571;SDS011;3827;49.928;8.548;2023-04-07T03:35:28;18.58;;;17.08;;
7571;SDS011;3827;49.928;8.548;2023-04-07T03:37:55;18.65;;;17.08;;
7571;SDS011;3827;49.928;8.548;2023-04-07T03:40:22;18.75;;;17.23;;
7571;SDS011;3827;49.928;8.548;2023-04-07T03:42:49;18.67;;;17.17;;
7571;SDS011;3827;49.928;8.548;2023-04-07T03:45:16;19.17;;;17.47;;
7571;SDS011;3827;49.928;8.548;2023-04-07T03:47:44;18.95;;;17.45;;
7571;SDS011;3827;49.928;8.548;2023-04-07T03:50:12;20.23;;;18.52;;
7571;SDS011;3827;49.928;8.548;2023-04-07T03:52:38;19.77;;;18.07;;
7571;SDS011;3827;49.928;8.548;2023-04-07T03:55:06;19.67;;;18.02;;
7571;SDS011;3827;49.928;8.548;2023-04-07T03:57:33;20.13;;;18.35;;
7571;SDS011;3827;49.928;8.548;2023-04-07T04:00:00;19.38;;;17.73;;
7571;SDS011;3827;49.928;8.548;2023-04-07T04:02:28;20.83;;;19.05;;
7571;SDS011;3827;49.928;8.548;2023-04-07T04:04:56;18.70;;;17.20;;
7571;SDS011;3827;49.928;8.548;2023-04-07T04:07:23;19.92;;;18.23;;
7571;SDS011;3827;49.928;8.548;2023-04-07T04:09:51;18.27;;;16.70;;
7571;SDS011;3827;49.928;8.548;2023-04-07T04:12:17;19.70;;;18.00;;
7571;SDS011;3827;49.928;8.548;2023-04-07T04:14:45;19.92;;;18.23;;
7571;SDS011;3827;49.928;8.548;2023-04-07T04:17:11;20.27;;;18.58;;
7571;SDS011;3827;49.928;8.548;2023-04-07T04:19:38;19.13;;;17.50;;
7571;SDS011;3827;49.928;8.548;2023-04-07T04:22:06;18.67;;;17.10;;
7571;SDS011;3827;49.928;8.548;2023-04-07T04:24:33;19.60;;;17.95;;
7571;SDS011;3827;49.928;8.548;2023-04-07T04:27:00;18.13;;;16.63;;
7571;SDS011;3827;49.928;8.548;2023-04-07T04:29:27;17.27;;;15.75;;
7571;SDS011;3827;49.928;8.548;2023-04-07T04:31:54;18.13;;;16.58;;
7571;SDS011;3827;49.928;8.548;2023-04-07T04:34:21;19.60;;;17.90;;
7571;SDS011;3827;49.928;8.548;2023-04-07T04:36:48;21.20;;;19.30;;
7571;SDS011;3827;49.928;8.548;2023-04-07T04:39:16;20.93;;;19.13;;
7571;SDS011;3827;49.928;8.548;2023-04-07T04:41:43;21.88;;;19.92;;
7571;SDS011;3827;49.928;8.548;2023-04-07T04:44:10;22.15;;;20.17;;
7571;SDS011;3827;49.928;8.548;2023-04-07T04:46:40;21.00;;;19.20;;
7571;SDS011;3827;49.928;8.548;2023-04-07T04:49:07;20.98;;;19.17;;
7571;SDS011;3827;49.928;8.548;2023-04-07T04:51:34;22.30;;;20.40;;
7571;SDS011;3827;49.928;8.548;2023-04-07T04:54:01;20.13;;;18.45;;
7571;SDS011;3827;49.928;8.548;2023-04-07T04:56:31;19.77;;;18.17;;
7571;SDS011;3827;49.928;8.548;2023-04-07T04:58:58;20.80;;;19.00;;
7571;SDS011;3827;49.928;8.548;2023-04-07T05:01:25;19.95;;;18.33;;
7571;SDS011;3827;49.928;8.548;2023-04-07T05:03:52;22.73;;;20.70;;
7571;SDS011;3827;49.928;8.548;2023-04-07T05:06:19;22.58;;;20.60;;
7571;SDS011;3827;49.928;8.548;2023-04-07T05:08:45;21.33;;;19.53;;
7571;SDS011;3827;49.928;8.548;2023-04-07T05:11:12;20.85;;;19.05;;
7571;SDS011;3827;49.928;8.548;2023-04-07T05:13:41;18.73;;;17.20;;
7571;SDS011;3827;49.928;8.548;2023-04-07T05:16:08;17.30;;;15.80;;
7571;SDS011;3827;49.928;8.548;2023-04-07T05:18:35;17.77;;;16.38;;
7571;SDS011;3827;49.928;8.548;2023-04-07T05:21:02;18.52;;;17.02;;
7571;SDS011;3827;49.928;8.548;2023-04-07T05:23:29;17.67;;;16.17;;
7571;SDS011;3827;49.928;8.548;2023-04-07T05:25:55;18.15;;;16.50;;
7571;SDS011;3827;49.928;8.548;2023-04-07T05:28:22;19.00;;;17.33;;
7571;SDS011;3827;49.928;8.548;2023-04-07T05:30:51;18.48;;;16.88;;
7571;SDS011;3827;49.928;8.548;2023-04-07T05:33:18;17.88;;;16.38;;
7571;SDS011;3827;49.928;8.548;2023-04-07T05:35:44;18.40;;;16.90;;
7571;SDS011;3827;49.928;8.548;2023-04-07T05:38:11;17.75;;;16.35;;
7571;SDS011;3827;49.928;8.548;2023-04-07T05:40:38;18.05;;;16.52;;
7571;SDS011;3827;49.928;8.548;2023-04-07T05:43:06;17.70;;;16.30;;
7571;SDS011;3827;49.928;8.548;2023-04-07T05:45:33;18.25;;;16.73;;
7571;SDS011;3827;49.928;8.548;2023-04-07T05:48:01;17.50;;;16.00;;
7571;SDS011;3827;49.928;8.548;2023-04-07T05:50:28;17.52;;;16.02;;
7571;SDS011;3827;49.928;8.548;2023-04-07T05:52:55;17.08;;;15.68;;
7571;SDS011;3827;49.928;8.548;2023-04-07T05:55:21;16.80;;;15.50;;
7571;SDS011;3827;49.928;8.548;2023-04-07T05:57:48;17.83;;;16.30;;
7571;SDS011;3827;49.928;8.548;2023-04-07T06:00:15;17.75;;;16.30;;
7571;SDS011;3827;49.928;8.548;2023-04-07T06:02:43;18.23;;;16.73;;
7571;SDS011;3827;49.928;8.548;2023-04-07T06:05:12;17.92;;;16.52;;
7571;SDS011;3827;49.928;8.548;2023-04-07T06:07:39;17.85;;;16.35;;
7571;SDS011;3827;49.928;8.548;2023-04-07T06:10:06;17.30;;;15.85;;
7571;SDS011;3827;49.928;8.548;2023-04-07T06:12:34;17.50;;;16.10;;
7571;SDS011;3827;49.928;8.548;2023-04-07T06:15:00;17.27;;;15.77;;
7571;SDS011;3827;49.928;8.548;2023-04-07T06:17:27;16.58;;;15.23;;
7571;SDS011;3827;49.928;8.548;2023-04-07T06:19:54;15.93;;;14.63;;
7571;SDS011;3827;49.928;8.548;2023-04-07T06:22:22;16.55;;;15.20;;
7571;SDS011;3827;49.928;8.548;2023-04-07T06:24:49;15.95;;;14.65;;
7571;SDS011;3827;49.928;8.548;2023-04-07T06:27:15;16.50;;;15.10;;
7571;SDS011;3827;49.928;8.548;2023-04-07T06:29:43;16.50;;;15.10;;
7571;SDS011;3827;49.928;8.548;2023-04-07T06:32:09;16.08;;;14.70;;
7571;SDS011;3827;49.928;8.548;2023-04-07T06:34:36;18.08;;;16.48;;
7571;SDS011;3827;49.928;8.548;2023-04-07T06:37:03;15.85;;;14.55;;
7571;SDS011;3827;49.928;8.548;2023-04-07T06:39:32;16.58;;;15.07;;
7571;SDS011;3827;49.928;8.548;2023-04-07T06:41:59;16.10;;;14.70;;
7571;SDS011;3827;49.928;8.548;2023-04-07T06:44:26;16.90;;;15.50;;
7571;SDS011;3827;49.928;8.548;2023-04-07T06:46:52;16.02;;;14.77;;
7571;SDS011;3827;49.928;8.548;2023-04-07T06:49:20;15.20;;;13.90;;
7571;SDS011;3827;49.928;8.548;2023-04-07T06:51:47;15.35;;;14.05;;
7571;SDS011;3827;49.928;8.548;2023-04-07T06:54:13;15.57;;;14.27;;
7571;SDS011;3827;49.928;8.548;2023-04-07T06:56:42;16.05;;;14.65;;
7571;SDS011;3827;49.928;8.548;2023-04-07T06:59:09;16.00;;;14.60;;
7571;SDS011;3827;49.928;8.548;2023-04-07T07:01:36;14.80;;;13.63;;
7571;SDS011;3827;49.928;8.548;2023-04-07T07:04:03;14.65;;;13.40;;
7571;SDS011;3827;49.928;8.548;2023-04-07T07:06:31;13.60;;;12.50;;
7571;SDS011;3827;49.928;8.548;2023-04-07T07:08:57;14.43;;;13.23;;
7571;SDS011;3827;49.928;8.548;2023-04-07T07:11:27;14.00;;;12.80;;
7571;SDS011;3827;49.928;8.548;2023-04-07T07:13:55;13.30;;;12.20;;
7571;SDS011;3827;49.928;8.548;2023-04-07T07:16:22;15.48;;;14.27;;
7571;SDS011;3827;49.928;8.548;2023-04-07T07:18:49;14.20;;;13.00;;
7571;SDS011;3827;49.928;8.548;2023-04-07T07:21:16;13.50;;;12.40;;
7571;SDS011;3827;49.928;8.548;2023-04-07T07:23:44;13.30;;;12.20;;
7571;SDS011;3827;49.928;8.548;2023-04-07T07:26:11;12.82;;;11.73;;
7571;SDS011;3827;49.928;8.548;2023-04-07T07:28:38;13.50;;;12.20;;
7571;SDS011;3827;49.928;8.548;2023-04-07T07:31:08;14.05;;;12.85;;
7571;SDS011;3827;49.928;8.548;2023-04-07T07:33:37;13.20;;;12.10;;
7571;SDS011;3827;49.928;8.548;2023-04-07T07:36:05;13.35;;;12.25;;
7571;SDS011;3827;49.928;8.548;2023-04-07T07:38:33;12.32;;;11.40;;
7571;SDS011;3827;49.928;8.548;2023-04-07T07:41:00;12.60;;;11.60;;
7571;SDS011;3827;49.928;8.548;2023-04-07T07:43:27;12.27;;;11.38;;
7571;SDS011;3827;49.928;8.548;2023-04-07T07:45:54;13.05;;;11.95;;
7571;SDS011;3827;49.928;8.548;2023-04-07T07:48:22;13.43;;;12.32;;
7571;SDS011;3827;49.928;8.548;2023-04-07T07:50:50;12.45;;;11.55;;
7571;SDS011;3827;49.928;8.548;2023-04-07T07:53:17;13.07;;;11.98;;
7571;SDS011;3827;49.928;8.548;2023-04-07T07:55:44;12.68;;;11.52;;
7571;SDS011;3827;49.928;8.548;2023-04-07T07:58:11;13.13;;;12.03;;
7571;SDS011;3827;49.928;8.548;2023-04-07T08:00:38;12.20;;;11.30;;
7571;SDS011;3827;49.928;8.548;2023-04-07T08:03:05;12.40;;;11.40;;
7571;SDS011;3827;49.928;8.548;2023-04-07T08:05:34;12.43;;;11.40;;
7571;SDS011;3827;49.928;8.548;2023-04-07T08:08:00;12.13;;;11.02;;
7571;SDS011;3827;49.928;8.548;2023-04-07T08:10:28;11.85;;;10.95;;
7571;SDS011;3827;49.928;8.548;2023-04-07T08:12:55;11.90;;;10.90;;
7571;SDS011;3827;49.928;8.548;2023-04-07T08:15:21;11.45;;;10.50;;
7571;SDS011;3827;49.928;8.548;2023-04-07T08:17:48;11.13;;;10.23;;
7571;SDS011;3827;49.928;8.548;2023-04-07T08:20:15;10.20;;;9.40;;
7571;SDS011;3827;49.928;8.548;2023-04-07T08:22:44;10.38;;;9.57;;
7571;SDS011;3827;49.928;8.548;2023-04-07T08:25:11;10.68;;;9.80;;
7571;SDS011;3827;49.928;8.548;2023-04-07T08:27:38;10.68;;;9.77;;
7571;SDS011;3827;49.928;8.548;2023-04-07T08:30:05;12.88;;;11.68;;
7571;SDS011;3827;49.928;8.548;2023-04-07T08:32:33;12.15;;;11.05;;
7571;SDS011;3827;49.928;8.548;2023-04-07T08:35:01;11.48;;;10.52;;
7571;SDS011;3827;49.928;8.548;2023-04-07T08:37:28;12.55;;;11.55;;
7571;SDS011;3827;49.928;8.548;2023-04-07T08:39:57;12.23;;;11.20;;
7571;SDS011;3827;49.928;8.548;2023-04-07T08:42:25;12.70;;;11.70;;
7571;SDS011;3827;49.928;8.548;2023-04-07T08:44:54;11.95;;;11.00;;
7571;SDS011;3827;49.928;8.548;2023-04-07T08:47:22;12.23;;;11.23;;
7571;SDS011;3827;49.928;8.548;2023-04-07T08:49:52;11.43;;;10.50;;
7571;SDS011;3827;49.928;8.548;2023-04-07T08:52:21;10.18;;;9.35;;
7571;SDS011;3827;49.928;8.548;2023-04-07T08:54:49;10.30;;;9.50;;
7571;SDS011;3827;49.928;8.548;2023-04-07T08:57:18;9.95;;;9.05;;
7571;SDS011;3827;49.928;8.548;2023-04-07T08:59:46;10.20;;;9.40;;
7571;SDS011;3827;49.928;8.548;2023-04-07T09:02:15;10.65;;;9.75;;
7571;SDS011;3827;49.928;8.548;2023-04-07T09:04:44;10.35;;;9.55;;
7571;SDS011;3827;49.928;8.548;2023-04-07T09:07:11;9.93;;;9.13;;
7571;SDS011;3827;49.928;8.548;2023-04-07T09:09:38;9.73;;;8.93;;
7571;SDS011;3827;49.928;8.548;2023-04-07T09:12:05;10.23;;;9.43;;
7571;SDS011;3827;49.928;8.548;2023-04-07T09:14:33;10.80;;;9.85;;
7571;SDS011;3827;49.928;8.548;2023-04-07T09:17:00;10.45;;;9.55;;
7571;SDS011;3827;49.928;8.548;2023-04-07T09:19:27;9.00;;;8.30;;
7571;SDS011;3827;49.928;8.548;2023-04-07T09:21:54;9.38;;;8.57;;
7571;SDS011;3827;49.928;8.548;2023-04-07T09:24:22;9.98;;;9.18;;
7571;SDS011;3827;49.928;8.548;2023-04-07T09:26:51;10.87;;;10.00;;
7571;SDS011;3827;49.928;8.548;2023-04-07T09:29:35;9.57;;;8.87;;
7571;SDS011;3827;49.928;8.548;2023-04-07T09:32:03;10.57;;;9.57;;
7571;SDS011;3827;49.928;8.548;2023-04-07T09:34:31;9.85;;;9.05;;
7571;SDS011;3827;49.928;8.548;2023-04-07T09:36:59;9.80;;;9.10;;
7571;SDS011;3827;49.928;8.548;2023-04-07T09:39:27;10.68;;;9.73;;
7571;SDS011;3827;49.928;8.548;2023-04-07T09:41:54;9.57;;;8.88;;
7571;SDS011;3827;49.928;8.548;2023-04-07T09:44:22;11.02;;;10.07;;
7571;SDS011;3827;49.928;8.548;2023-04-07T09:46:52;10.50;;;9.67;;
7571;SDS011;3827;49.928;8.548;2023-04-07T09:49:20;9.88;;;9.00;;
7571;SDS011;3827;49.928;8.548;2023-04-07T09:51:51;9.63;;;8.93;;
7571;SDS011;3827;49.928;8.548;2023-04-07T09:54:30;11.25;;;10.35;;
7571;SDS011;3827;49.928;8.548;2023-04-07T09:56:59;10.70;;;9.90;;
7571;SDS011;3827;49.928;8.548;2023-04-07T09:59:27;9.82;;;9.13;;
7571;SDS011;3827;49.928;8.548;2023-04-07T10:01:55;10.48;;;9.57;;
7571;SDS011;3827;49.928;8.548;2023-04-07T10:04:23;9.88;;;9.07;;
7571;SDS011;3827;49.928;8.548;2023-04-07T10:06:51;10.52;;;9.68;;
7571;SDS011;3827;49.928;8.548;2023-04-07T10:09:18;11.40;;;10.30;;
7571;SDS011;3827;49.928;8.548;2023-04-07T10:11:46;11.55;;;10.55;;
7571;SDS011;3827;49.928;8.548;2023-04-07T10:14:14;10.70;;;9.88;;
7571;SDS011;3827;49.928;8.548;2023-04-07T10:16:41;10.25;;;9.45;;
7571;SDS011;3827;49.928;8.548;2023-04-07T10:19:10;10.68;;;9.88;;
7571;SDS011;3827;49.928;8.548;2023-04-07T10:21:38;10.83;;;10.00;;
7571;SDS011;3827;49.928;8.548;2023-04-07T10:24:10;11.30;;;10.32;;
7571;SDS011;3827;49.928;8.548;2023-04-07T10:26:47;12.93;;;11.82;;
7571;SDS011;3827;49.928;8.548;2023-04-07T10:29:17;11.10;;;10.15;;
7571;SDS011;3827;49.928;8.548;2023-04-07T10:31:45;23.03;;;20.53;;
7571;SDS011;3827;49.928;8.548;2023-04-07T10:34:14;43.42;;;30.42;;
7571;SDS011;3827;49.928;8.548;2023-04-07T10:39:37;12.35;;;11.35;;
7571;SDS011;3827;49.928;8.548;2023-04-07T10:42:04;16.02;;;14.32;;
7571;SDS011;3827;49.928;8.548;2023-04-07T10:44:44;24.05;;;19.83;;
7571;SDS011;3827;49.928;8.548;2023-04-07T10:47:13;42.20;;;30.73;;
7571;SDS011;3827;49.928;8.548;2023-04-07T10:50:13;10.90;;;10.00;;
7571;SDS011;3827;49.928;8.548;2023-04-07T10:52:41;10.27;;;9.52;;
7571;SDS011;3827;49.928;8.548;2023-04-07T10:55:31;10.73;;;9.88;;
7571;SDS011;3827;49.928;8.548;2023-04-07T10:58:18;10.45;;;9.55;;
7571;SDS011;3827;49.928;8.548;2023-04-07T11:06:34;10.80;;;9.98;;
7571;SDS011;3827;49.928;8.548;2023-04-07T11:09:17;10.73;;;9.93;;
7571;SDS011;3827;49.928;8.548;2023-04-07T11:11:45;10.10;;;9.30;;
7571;SDS011;3827;49.928;8.548;2023-04-07T11:14:23;9.83;;;9.00;;
7571;SDS011;3827;49.928;8.548;2023-04-07T11:16:51;9.90;;;9.17;;
7571;SDS011;3827;49.928;8.548;2023-04-07T11:19:18;9.23;;;8.52;;
7571;SDS011;3827;49.928;8.548;2023-04-07T11:21:46;9.10;;;8.30;;
7571;SDS011;3827;49.928;8.548;2023-04-07T11:26:58;8.73;;;8.02;;
7571;SDS011;3827;49.928;8.548;2023-04-07T11:29:26;7.70;;;7.20;;
7571;SDS011;3827;49.928;8.548;2023-04-07T11:31:54;7.60;;;7.10;;
7571;SDS011;3827;49.928;8.548;2023-04-07T11:34:27;7.40;;;6.80;;
7571;SDS011;3827;49.928;8.548;2023-04-07T11:36:59;8.33;;;7.37;;
7571;SDS011;3827;49.928;8.548;2023-04-07T11:39:50;8.50;;;7.90;;
7571;SDS011;3827;49.928;8.548;2023-04-07T11:42:30;9.00;;;8.30;;
7571;SDS011;3827;49.928;8.548;2023-04-07T11:44:57;8.70;;;7.60;;
7571;SDS011;3827;49.928;8.548;2023-04-07T11:47:32;8.38;;;7.68;;
7571;SDS011;3827;49.928;8.548;2023-04-07T11:50:00;7.57;;;6.97;;
7571;SDS011;3827;49.928;8.548;2023-04-07T11:52:28;7.88;;;7.28;;
7571;SDS011;3827;49.928;8.548;2023-04-07T11:55:06;8.30;;;7.60;;
7571;SDS011;3827;49.928;8.548;2023-04-07T11:57:42;8.13;;;7.47;;
7571;SDS011;3827;49.928;8.548;2023-04-07T12:00:10;7.22;;;6.72;;
7571;SDS011;3827;49.928;8.548;2023-04-07T12:02:38;7.57;;;6.97;;
7571;SDS011;3827;49.928;8.548;2023-04-07T12:05:06;7.20;;;6.70;;
7571;SDS011;3827;49.928;8.548;2023-04-07T12:07:35;7.00;;;6.40;;
7571;SDS011;3827;49.928;8.548;2023-04-07T12:10:18;7.15;;;6.60;;
7571;SDS011;3827;49.928;8.548;2023-04-07T12:12:46;6.22;;;5.82;;
7571;SDS011;3827;49.928;8.548;2023-04-07T12:15:14;5.32;;;4.97;;
7571;SDS011;3827;49.928;8.548;2023-04-07T12:17:43;5.85;;;5.38;;
7571;SDS011;3827;49.928;8.548;2023-04-07T12:20:11;5.32;;;4.90;;
7571;SDS011;3827;49.928;8.548;2023-04-07T12:22:40;5.18;;;4.78;;
7571;SDS011;3827;49.928;8.548;2023-04-07T12:25:07;4.60;;;4.30;;
7571;SDS011;3827;49.928;8.548;2023-04-07T12:27:34;4.50;;;4.20;;
7571;SDS011;3827;49.928;8.548;2023-04-07T12:30:01;5.45;;;5.05;;
7571;SDS011;3827;49.928;8.548;2023-04-07T12:32:29;4.50;;;4.20;;
7571;SDS011;3827;49.928;8.548;2023-04-07T12:34:57;4.50;;;4.20;;
7571;SDS011;3827;49.928;8.548;2023-04-07T12:37:24;4.22;;;3.92;;
7571;SDS011;3827;49.928;8.548;2023-04-07T12:39:52;4.30;;;4.00;;
7571;SDS011;3827;49.928;8.548;2023-04-07T12:42:19;4.53;;;4.22;;
7571;SDS011;3827;49.928;8.548;2023-04-07T12:44:46;4.90;;;4.50;;
7571;SDS011;3827;49.928;8.548;2023-04-07T12:47:13;5.47;;;4.97;;
7571;SDS011;3827;49.928;8.548;2023-04-07T12:49:40;5.32;;;4.93;;
7571;SDS011;3827;49.928;8.548;2023-04-07T12:52:07;4.75;;;4.43;;
7571;SDS011;3827;49.928;8.548;2023-04-07T12:54:34;3.88;;;3.65;;
7571;SDS011;3827;49.928;8.548;2023-04-07T12:57:02;4.20;;;3.90;;
7571;SDS011;3827;49.928;8.548;2023-04-07T12:59:29;4.20;;;3.90;;
7571;SDS011;3827;49.928;8.548;2023-04-07T13:01:56;4.68;;;4.38;;
7571;SDS011;3827;49.928;8.548;2023-04-07T13:04:23;3.38;;;3.17;;
7571;SDS011;3827;49.928;8.548;2023-04-07T13:06:50;3.95;;;3.65;;
7571;SDS011;3827;49.928;8.548;2023-04-07T13:09:17;3.37;;;3.17;;
7571;SDS011;3827;49.928;8.548;2023-04-07T13:11:44;3.30;;;3.10;;
7571;SDS011;3827;49.928;8.548;2023-04-07T13:14:13;3.67;;;3.37;;
7571;SDS011;3827;49.928;8.548;2023-04-07T13:16:40;3.78;;;3.58;;
7571;SDS011;3827;49.928;8.548;2023-04-07T13:19:07;3.78;;;3.47;;
7571;SDS011;3827;49.928;8.548;2023-04-07T13:21:34;4.13;;;3.83;;
7571;SDS011;3827;49.928;8.548;2023-04-07T13:24:01;4.80;;;4.50;;
7571;SDS011;3827;49.928;8.548;2023-04-07T13:26:28;5.20;;;4.80;;
7571;SDS011;3827;49.928;8.548;2023-04-07T13:28:55;6.10;;;5.70;;
7571;SDS011;3827;49.928;8.548;2023-04-07T13:31:23;6.47;;;6.07;;
7571;SDS011;3827;49.928;8.548;2023-04-07T13:33:51;7.38;;;6.78;;
7571;SDS011;3827;49.928;8.548;2023-04-07T13:36:18;7.07;;;6.60;;
7571;SDS011;3827;49.928;8.548;2023-04-07T13:38:46;5.78;;;5.38;;
7571;SDS011;3827;49.928;8.548;2023-04-07T13:41:12;5.70;;;5.32;;
7571;SDS011;3827;49.928;8.548;2023-04-07T13:43:39;5.80;;;5.40;;
7571;SDS011;3827;49.928;8.548;2023-04-07T13:46:06;4.90;;;4.60;;
7571;SDS011;3827;49.928;8.548;2023-04-07T13:48:35;5.40;;;5.00;;
7571;SDS011;3827;49.928;8.548;2023-04-07T13:51:01;5.32;;;4.93;;
7571;SDS011;3827;49.928;8.548;2023-04-07T13:53:29;5.07;;;4.78;;
7571;SDS011;3827;49.928;8.548;2023-04-07T13:55:55;4.50;;;4.20;;
7571;SDS011;3827;49.928;8.548;2023-04-07T13:58:23;5.32;;;4.97;;
7571;SDS011;3827;49.928;8.548;2023-04-07T14:00:50;5.10;;;4.80;;
7571;SDS011;3827;49.928;8.548;2023-04-07T14:03:17;5.72;;;5.32;;
7571;SDS011;3827;49.928;8.548;2023-04-07T14:05:46;5.63;;;5.13;;
7571;SDS011;3827;49.928;8.548;2023-04-07T14:08:13;6.63;;;6.13;;
7571;SDS011;3827;49.928;8.548;2023-04-07T14:10:42;5.63;;;5.22;;
7571;SDS011;3827;49.928;8.548;2023-04-07T14:13:09;5.05;;;4.75;;
7571;SDS011;3827;49.928;8.548;2023-04-07T14:15:36;4.82;;;4.43;;
7571;SDS011;3827;49.928;8.548;2023-04-07T14:18:03;3.78;;;3.58;;
7571;SDS011;3827;49.928;8.548;2023-04-07T14:20:30;3.60;;;3.40;;
7571;SDS011;3827;49.928;8.548;2023-04-07T14:22:59;4.00;;;3.70;;
7571;SDS011;3827;49.928;8.548;2023-04-07T14:25:26;3.60;;;3.30;;
7571;SDS011;3827;49.928;8.548;2023-04-07T14:27:53;4.18;;;3.85;;
7571;SDS011;3827;49.928;8.548;2023-04-07T14:30:20;4.22;;;3.92;;
7571;SDS011;3827;49.928;8.548;2023-04-07T14:32:47;3.90;;;3.60;;
7571;SDS011;3827;49.928;8.548;2023-04-07T14:35:14;4.03;;;3.72;;
7571;SDS011;3827;49.928;8.548;2023-04-07T14:37:41;4.30;;;4.00;;
7571;SDS011;3827;49.928;8.548;2023-04-07T14:40:10;3.80;;;3.60;;
7571;SDS011;3827;49.928;8.548;2023-04-07T14:42:37;4.00;;;3.60;;
7571;SDS011;3827;49.928;8.548;2023-04-07T14:45:05;3.13;;;2.92;;
7571;SDS011;3827;49.928;8.548;2023-04-07T14:47:33;2.97;;;2.78;;
7571;SDS011;3827;49.928;8.548;2023-04-07T14:49:59;2.90;;;2.70;;
7571;SDS011;3827;49.928;8.548;2023-04-07T14:52:26;3.13;;;2.90;;
7571;SDS011;3827;49.928;8.548;2023-04-07T14:54:54;2.63;;;2.42;;
7571;SDS011;3827;49.928;8.548;2023-04-07T14:57:22;4.87;;;4.47;;
7571;SDS011;3827;49.928;8.548;2023-04-07T14:59:49;2.50;;;2.40;;
7571;SDS011;3827;49.928;8.548;2023-04-07T15:02:16;2.77;;;2.60;;
7571;SDS011;3827;49.928;8.548;2023-04-07T15:04:43;2.30;;;2.20;;
7571;SDS011;3827;49.928;8.548;2023-04-07T15:07:10;2.35;;;2.20;;
7571;SDS011;3827;49.928;8.548;2023-04-07T15:09:37;2.00;;;1.90;;
7571;SDS011;3827;49.928;8.548;2023-04-07T15:12:04;1.95;;;1.85;;
7571;SDS011;3827;49.928;8.548;2023-04-07T15:14:32;2.83;;;2.63;;